• Join FlightAware (Why Join?)
  • Login
  • US Flag 
05:23AM EST


 

Airport Tracker/Info


-or-


 

Live Flight TrackerFlight Track Log ✈ AIC164 ✈ 21-Jan-2012 ✈ KORD - VABB / BOM

Flight Track Log - Related Links

Times and Time Zones

All times are in EST time to prevent confusion due to time zone crossing. See the AIC164 flight status page for this flight to view local times or setup timezone preferences in your user account.

Time Position Orientation Groundspeed Altitude Reporting Facility
EST Latitude Longitude Course Direction KTS MPH feet Rate Location/Type
04:17AM 42.0167 -87.9667 37° Northeast 179 206 3,100  Level Chicago TRACON
04:18AM 42.0500 -87.9333 37° Northeast 188 216 4,900 1,740 Climbing Chicago TRACON
04:19AM 42.1000 -87.8833 60° Northeast 264 304 6,600 2,040 Climbing Chicago TRACON
04:19AM 42.1358 -87.7986 76° East 287 330 8,700 2,520 Climbing Chicago Center
04:20AM 42.1569 -87.6861 74° East 311 358 11,300 1,980 Climbing Chicago Center
04:21AM 42.1842 -87.5536 75° East 331 381 12,700 1,860 Climbing Chicago Center
04:22AM 42.2131 -87.4069 83° East 372 428 15,100 2,400 Climbing Chicago Center
04:23AM 42.2269 -87.2469 86° East 406 467 17,500 2,220 Climbing Chicago Center
04:24AM 42.2361 -87.0753 84° East 436 502 19,600 2,100 Climbing Chicago Center
04:25AM 42.2494 -86.9011 85° East 455 524 21,800 2,100 Climbing Chicago Center
04:26AM 42.2600 -86.7183 85° East 467 537 23,800 1,860 Climbing Chicago Center
04:27AM 42.2719 -86.5269 86° East 492 566 25,600 1,860 Climbing Chicago Center
04:28AM 42.2819 -86.3383 85° East 504 580 27,600 1,800 Climbing Chicago Center
04:29AM 42.2953 -86.1467 87° East 504 580 29,200 1,620 Climbing Chicago Center
04:30AM 42.3028 -85.9722 86° East 504 580 30,900 1,500 Climbing Chicago Center
04:31AM 42.3117 -85.7808 85° East 509 586 32,200 720 Climbing Chicago Center
04:33AM 42.3336 -85.4150 87° East 511 588 33,000 240 Climbing Cleveland Center
04:34AM 42.3419 -85.2161 85° East 523 602 33,000  Level Cleveland Center
04:35AM 42.3547 -84.9950 87° East 528 608 33,000  Level Cleveland Center
04:36AM 42.3625 -84.7903 89° East 535 616 33,000  Level Cleveland Center
04:37AM 42.3653 -84.5939 87° East 531 611 33,000  Level Cleveland Center
04:38AM 42.3744 -84.3864 87° East 536 617 33,000  Level Cleveland Center
04:39AM 42.3831 -84.1786 87° East 536 617 33,000  Level Cleveland Center
04:40AM 42.3914 -83.9739 86° East 544 626 33,000  Level Cleveland Center
04:41AM 42.4017 -83.7664 83° East 550 633 33,000  Level Cleveland Center
04:42AM 42.4197 -83.5592 72° East 555 639 33,000  Level Cleveland Center
04:43AM 42.4617 -83.3808 69° East 552 635 33,000  Level Cleveland Center
04:44AM 42.5183 -83.1806 70° East 557 641 33,000  Level Cleveland Center
04:45AM 42.5708 -82.9797 70° East 562 647 33,000  Level Cleveland Center
04:46AM 42.6294 -82.7561 70° East 562 647 33,000  Level Cleveland Center
04:47AM 42.6850 -82.5519 71° East 562 647 33,000  Level Cleveland Center
04:48AM 42.7364 -82.3472 71° East 567 652 33,000  Level Cleveland Center
04:49AM 42.7872 -82.1419 70° East 567 652 33,000  Level Cleveland Center
04:50AM 42.8419 -81.9339 73° East 572 658 33,000  Level Cleveland Center
04:51AM 42.8833 -81.7500 74° East 580 667 33,000  Level Toronto Center
04:52AM 42.9333 -81.5167 71° East 590 679 33,000  Level Toronto Center
04:53AM 42.9833 -81.3167 71° East 590 679 33,000  Level Toronto Center
04:54AM 43.0333 -81.1167 60° Northeast 590 679 33,000  Level Toronto Center
04:55AM 43.1167 -80.9167 62° Northeast 590 679 33,000  Level Toronto Center
04:56AM 43.2000 -80.7000 55° Northeast 590 679 33,000  Level Toronto Center
04:57AM 43.2833 -80.5333 62° Northeast 590 679 33,000  Level Toronto Center
04:58AM 43.3667 -80.3167 63° Northeast 590 679 33,000  Level Toronto Center
04:59AM 43.4333 -80.1333 60° Northeast 590 679 33,000  Level Toronto Center
05:00AM 43.5167 -79.9333 60° Northeast 590 679 33,000  Level Toronto Center
05:01AM 43.6000 -79.7333 60° Northeast 600 690 33,000  Level Toronto Center
05:02AM 43.6833 -79.5333 65° Northeast 590 679 33,000  Level Toronto Center
05:03AM 43.7500 -79.3333 62° Northeast 600 690 33,000  Level Toronto Center
05:04AM 43.8333 -79.1167 65° Northeast 600 690 33,000  Level Toronto Center
05:05AM 43.9000 -78.9167 67° East 600 690 33,000  Level Toronto Center
05:06AM 43.9667 -78.7000 60° Northeast 600 690 33,000  Level Toronto Center
05:07AM 44.0500 -78.5000 72° East 600 690 33,000  Level Toronto Center
05:08AM 44.1000 -78.2833 47° Northeast 600 690 33,000  Level Toronto Center
05:09AM 44.1667 -78.1833 79° East 600 690 33,000  Level Montreal Center
05:09AM 44.1833 -78.0667 65° Northeast 600 690 33,000  Level Toronto Center
05:10AM 44.2500 -77.8667 62° Northeast 600 690 33,000  Level Toronto Center
05:11AM 44.3333 -77.6500 50° Northeast 610 702 33,000  Level Toronto Center
05:12AM 44.3833 -77.5667 63° Northeast 600 690 33,000  Level Montreal Center
05:13AM 44.4667 -77.3333 79° East 610 702 33,000  Level Montreal Center
05:13AM 44.4833 -77.2167 65° Northeast 610 702 33,000  Level Toronto Center
05:14AM 44.5500 -77.0167 55° Northeast 610 702 33,000  Level Toronto Center
05:15AM 44.6000 -76.9167 62° Northeast 610 702 33,000  Level Montreal Center
05:16AM 44.6833 -76.7000 79° East 610 702 33,000  Level Montreal Center
05:16AM 44.7000 -76.5833 60° Northeast 610 702 33,000  Level Toronto Center
05:17AM 44.7833 -76.3833 55° Northeast 610 702 33,000  Level Toronto Center
05:18AM 44.8333 -76.2833 59° Northeast 610 702 33,000  Level Montreal Center
05:19AM 44.9167 -76.0833 61° Northeast 600 690 33,000  Level Montreal Center
05:20AM 45.0000 -75.8667 52° Northeast 600 690 33,000  Level Montreal Center
05:21AM 45.1000 -75.6833 61° Northeast 600 690 33,000  Level Montreal Center
05:22AM 45.1833 -75.4667 57° Northeast 600 690 33,000  Level Montreal Center
05:23AM 45.2667 -75.2833 57° Northeast 600 690 33,000  Level Montreal Center
05:24AM 45.3667 -75.0667 59° Northeast 600 690 33,000  Level Montreal Center
05:25AM 45.4500 -74.8667 52° Northeast 610 702 33,000  Level Montreal Center
05:26AM 45.5500 -74.6833 63° Northeast 600 690 33,000  Level Montreal Center
05:27AM 45.6333 -74.4500 52° Northeast 600 690 33,000  Level Montreal Center
05:28AM 45.7333 -74.2667 59° Northeast 600 690 33,000  Level Montreal Center
05:29AM 45.8167 -74.0667 61° Northeast 590 679 33,000  Level Montreal Center
05:30AM 45.9000 -73.8500 59° Northeast 590 679 33,000  Level Montreal Center
05:31AM 45.9833 -73.6500 54° Northeast 590 679 33,000  Level Montreal Center
05:32AM 46.0833 -73.4500 59° Northeast 600 690 33,000  Level Montreal Center
05:33AM 46.1667 -73.2500 66° East 600 690 33,000  Level Montreal Center
05:34AM 46.2333 -73.0333 54° Northeast 600 690 33,000  Level Montreal Center
05:35AM 46.3333 -72.8333 59° Northeast 600 690 33,000  Level Montreal Center
05:36AM 46.4167 -72.6333 61° Northeast 590 679 33,000  Level Montreal Center
05:37AM 46.5000 -72.4167 61° Northeast 590 679 33,000  Level Montreal Center
05:38AM 46.5833 -72.2000 59° Northeast 590 679 33,000  Level Montreal Center
05:39AM 46.6667 -72.0000 61° Northeast 590 679 33,000  Level Montreal Center
05:40AM 46.7500 -71.7833 59° Northeast 590 679 33,000  Level Montreal Center
05:41AM 46.8333 -71.5833 66° East 600 690 33,000  Level Montreal Center
05:42AM 46.9000 -71.3667 54° Northeast 580 667 33,000  Level Montreal Center
05:43AM 47.0000 -71.1667 64° Northeast 590 679 33,000  Level Montreal Center
05:44AM 47.0667 -70.9667 60° Northeast 590 679 33,000  Level Montreal Center
05:45AM 47.1500 -70.7500 60° Northeast 590 679 33,000  Level Montreal Center
05:46AM 47.2333 -70.5333 66° East 590 679 33,000  Level Montreal Center
05:47AM 47.3000 -70.3167 53° Northeast 590 679 33,000  Level Montreal Center
05:48AM 47.4000 -70.1167 65° Northeast 590 679 33,000  Level Montreal Center
05:49AM 47.4667 -69.9000 58° Northeast 590 679 33,000  Level Montreal Center
05:50AM 47.5500 -69.7000 64° Northeast 580 667 33,000  Level Montreal Center
05:51AM 47.6333 -69.4500 62° Northeast 580 667 33,000  Level Montreal Center
05:52AM 47.7000 -69.2667 62° Northeast 580 667 33,000  Level Montreal Center
05:53AM 47.7833 -69.0333 58° Northeast 580 667 33,000  Level Montreal Center
05:54AM 47.8667 -68.8333 63° Northeast 580 667 33,000  Level Montreal Center
05:55AM 47.9333 -68.6333 63° Northeast 580 667 33,000  Level Montreal Center
05:56AM 48.0000 -68.4333 68° East 580 667 33,000  Level Montreal Center
05:57AM 48.0667 -68.1833 60° Northeast 580 667 33,000  Level Montreal Center
05:58AM 48.1500 -67.9667 63° Northeast 580 667 33,000  Level Montreal Center
05:59AM 48.2167 -67.7667 65° Northeast 570 656 33,000  Level Montreal Center
06:00AM 48.2833 -67.5500 55° Northeast 570 656 33,000  Level Montreal Center
06:01AM 48.3833 -67.3333 69° East 570 656 33,000  Level Montreal Center
06:01AM 48.4000 -67.2667 65° Northeast 570 656 33,000  Level Moncton Center
06:02AM 48.4667 -67.0500 58° Northeast 570 656 33,000  Level Moncton Center
06:03AM 48.5500 -66.8500 69° East 570 656 33,000  Level Moncton Center
06:04AM 48.6000 -66.6500 56° Northeast 560 644 33,000  Level Moncton Center
06:05AM 48.6667 -66.5000 71° East 560 644 33,000  Level Gander Center
06:06AM 48.7167 -66.2833 63° Northeast 560 644 33,000  Level Gander Center
06:07AM 48.7833 -66.0833 66° East 550 633 33,000  Level Gander Center
06:08AM 48.8500 -65.8500 63° Northeast 550 633 33,000  Level Gander Center
06:09AM 48.9167 -65.6500 45° Northeast 550 633 33,000  Level Gander Center
06:09AM 48.9500 -65.6000 69° East 550 633 33,000  Level Moncton Center
06:10AM 49.0000 -65.4000 65° Northeast 550 633 33,000  Level Moncton Center
06:11AM 49.0500 -65.2333 65° Northeast 550 633 33,000  Level Gander Center
06:12AM 49.1167 -65.0167 63° Northeast 550 633 33,000  Level Gander Center
06:12AM 49.1333 -64.9667 66° East 550 633 33,000  Level Moncton Center
06:13AM 49.2000 -64.7333 63° Northeast 550 633 33,000  Level Moncton Center
06:14AM 49.2500 -64.5833 69° East 550 633 33,000  Level Gander Center
06:15AM 49.3000 -64.3833 52° Northeast 550 633 33,000  Level Gander Center
06:15AM 49.3333 -64.3167 69° East 540 621 33,000  Level Moncton Center
06:16AM 49.3833 -64.1167 65° Northeast 540 621 33,000  Level Moncton Center
06:17AM 49.4333 -63.9500 69° East 550 633 33,000  Level Gander Center
06:18AM 49.4833 -63.7500 58° Northeast 540 621 33,000  Level Gander Center
06:18AM 49.5167 -63.6667 63° Northeast 540 621 33,000  Level Moncton Center
06:19AM 49.5667 -63.5167 69° East 540 621 33,000  Level Gander Center
06:20AM 49.6167 -63.3167 63° Northeast 540 621 33,000  Level Gander Center
06:20AM 49.6333 -63.2667 67° East 540 621 33,000  Level Moncton Center
06:21AM 49.6833 -63.0833 69° East 540 621 33,000  Level Gander Center
06:22AM 49.7333 -62.8833 52° Northeast 540 621 33,000  Level Gander Center
06:22AM 49.7500 -62.8500 67° East 540 621 33,000  Level Moncton Center
06:23AM 49.8167 -62.6000 61° Northeast 530 610 33,000  Level Moncton Center
06:24AM 49.8833 -62.4167 71° East 540 621 33,000  Level Moncton Center
06:25AM 49.9167 -62.2667 90° East 530 610 33,000  Level Gander Center
06:25AM 49.9167 -62.2167 63° Northeast 530 610 33,000  Level Moncton Center
06:26AM 49.9667 -62.0667 66° East 530 610 33,000  Level Gander Center
06:27AM 50.0333 -61.8333 90° East 530 610 33,000  Level Gander Center
06:27AM 50.0333 -61.7833 65° Northeast 530 610 33,000  Level Moncton Center
06:28AM 50.0833 -61.6167 69° East 540 621 33,000  Level Gander Center
06:29AM 50.1333 -61.4167 64° Northeast 540 621 33,000  Level Gander Center
06:30AM 50.2000 -61.2000 69° East 530 610 33,000  Level Gander Center
06:31AM 50.2500 -61.0000 71° East 530 610 33,000  Level Gander Center
06:32AM 50.3000 -60.7667 64° Northeast 530 610 33,000  Level Gander Center
06:33AM 50.3667 -60.5500 71° East 530 610 33,000  Level Gander Center
06:34AM 50.4167 -60.3167 67° East 530 610 33,000  Level Gander Center
06:35AM 50.4667 -60.1333 67° East 530 610 33,000  Level Gander Center
06:36AM 50.5333 -59.8833 68° East 530 610 33,000  Level Gander Center
06:37AM 50.5833 -59.6833 90° East 530 610 33,000  Level Gander Center
06:37AM 50.5833 -59.6167 71° East 540 621 33,000  Level Moncton Center
06:38AM 50.6333 -59.3833 65° Northeast 530 610 33,000  Level Moncton Center
06:39AM 50.6833 -59.2167 62° Northeast 530 610 33,000  Level Gander Center
06:39AM 50.7000 -59.1667 76° East 530 610 33,000  Level Moncton Center
06:40AM 50.7333 -58.9500 64° Northeast 510 587 33,000  Level Moncton Center
06:41AM 50.8000 -58.7333 71° East 530 610 33,000  Level Moncton Center
06:42AM 50.8333 -58.5833 70° East 520 598 33,000  Level Gander Center
06:43AM 50.8833 -58.3667 90° East 520 598 33,000  Level Gander Center
06:43AM 50.8833 -58.2833 60° Northeast 520 598 33,000  Level Moncton Center
06:44AM 50.9500 -58.1000 70° East 520 598 33,000  Level Moncton Center
06:45AM 51.0000 -57.8833 72° East 520 598 33,000  Level Moncton Center
06:46AM 51.0333 -57.7167 70° East 520 598 33,000  Level Gander Center
06:47AM 51.0833 -57.5000 68° East 520 598 33,000  Level Gander Center
06:47AM 51.1000 -57.4333 80° East 520 598 33,000  Level Moncton Center
06:48AM 51.1167 -57.2833 64° Northeast 520 598 33,000  Level Gander Center
06:49AM 51.1833 -57.0667 76° East 520 598 33,000  Level Gander Center
06:50AM 51.2167 -56.8500 70° East 520 598 33,000  Level Gander Center
06:51AM 51.2667 -56.6333 62° Northeast 520 598 33,100 300 Climbing Gander Center
06:51AM 51.2833 -56.5833 81° East 520 598 33,400 1,560 Climbing Moncton Center
06:52AM 51.3000 -56.4167 68° East 520 598 34,700 1,500 Climbing Gander Center
06:52AM 51.3167 -56.3500 70° East 520 598 34,900 240 Climbing Gander Center
06:53AM 51.3667 -56.1333 72° East 530 610 35,000  Climbing Gander Center
06:54AM 51.4000 -55.9667 58° Northeast 520 598 35,000  Level Gander Center
06:55AM 51.4833 -55.7500 68° East 540 621 35,000  Level Gander Center
06:56AM 51.5333 -55.5500 62° Northeast 540 621 35,000  Level Gander Center
06:56AM 51.5500 -55.5000 64° Northeast 530 610 35,000  Level Gander Center
06:57AM 51.6000 -55.3333 68° East 530 610 35,000  Level Gander Center
06:57AM 51.6167 -55.2667 51° Northeast 530 610 35,000  Level Gander Center
06:58AM 51.6833 -55.1333 68° East 530 610 35,000  Level Gander Center
06:58AM 51.7000 -55.0667 72° East 530 610 35,000  Level Gander Center
06:59AM 51.7333 -54.9000 43° Northeast 530 610 35,000  Level Gander Center
06:59AM 51.7667 -54.8500 71° East 530 610 35,000  Level Gander Center
07:00AM 51.8167 -54.6167 57° Northeast 540 621 35,000  Level Gander Center
07:01AM 51.8833 -54.4500 68° East 530 610 35,000  Level Gander Center
07:02AM 51.9333 -54.2500 62° Northeast 530 610 35,000  Level Gander Center
07:03AM 52.0000 -54.0500 62° Northeast 540 621 35,000  Level Gander Center
07:03AM 52.0167 -54.0000 65° Northeast 530 610 35,000  Level Gander Center
07:04AM 52.0833 -53.7667 66° East 540 621 35,000  Level Gander Center
07:05AM 52.1333 -53.5833 63° Northeast 540 621 35,000  Level Gander Center
07:06AM 52.2000 -53.3667 68° East 540 621 35,000  Level Gander Center
07:07AM 52.2500 -53.1667 71° East 540 621 35,000  Level Gander Center
07:08AM 52.3000 -52.9333 65° Northeast 540 621 35,000  Level Gander Center
07:09AM 52.3667 -52.7000 71° East 530 610 35,000  Level Gander Center
07:10AM 52.4167 -52.4667 71° East 530 610 35,000  Level Gander Center
07:11AM 52.4667 -52.2333 71° East 540 621 35,000  Level Gander Center
07:12AM 52.5167 -52.0000 70° East 550 633 35,000  Level Gander Center
07:13AM 52.5667 -51.7667 65° Northeast 550 633 35,000  Level Gander Center
07:14AM 52.6333 -51.5333 67° East 540 621 35,000  Level Gander Center
07:16AM 52.7500 -51.0667 77° East 550 633 35,000  Level Gander Center
07:17AM 52.7833 -50.8333 65° Northeast 550 633 35,000  Level Gander Center
07:18AM 52.8500 -50.6000 70° East 560 644 35,000  Level Gander Center
07:19AM 52.9000 -50.3667 83° East 550 633 35,000  Level Gander Center
07:20AM 52.9167 -50.1333 65° Northeast 550 633 35,000  Level Gander Center
07:27AM 53.3641 -48.5112 69° East  Level FlightAware Approximate
07:35AM 53.7858 -46.6154 70° East  Level FlightAware Approximate
07:43AM 54.1769 -44.6824 72° East  Level FlightAware Approximate
07:51AM 54.5366 -42.7141 73° East  Level FlightAware Approximate
07:59AM 54.8637 -40.7124 74° East  Level FlightAware Approximate
08:07AM 55.1809 -38.6910 73° East  Level FlightAware Approximate
08:15AM 55.5110 -36.6582 75° East  Level FlightAware Approximate
08:23AM 55.8069 -34.5929 77° East  Level FlightAware Approximate
08:31AM 56.0678 -32.4978 78° East  Level FlightAware Approximate
08:39AM 56.2926 -30.3762 79° East  Level FlightAware Approximate
08:47AM 56.5117 -28.2402 90° East  Level FlightAware Approximate
08:55AM 56.4848 -26.1195 81° East  Level FlightAware Approximate
09:03AM 56.6530 -23.9590 79° East  Level FlightAware Approximate
09:11AM 56.8734 -21.8039 83° East  Level FlightAware Approximate
09:19AM 56.9949 -19.6149 91° East  Level FlightAware Approximate
09:27AM 56.9477 -17.4111 93° East  Level FlightAware Approximate
09:35AM 56.8581 -15.2160 95° East  Level FlightAware Approximate
09:43AM 56.7363 -13.0322 97° East  Level FlightAware Approximate
09:51AM 56.5765 -10.8646 99° East  Level FlightAware Approximate
09:59AM 56.3798 -8.7172 101° East  Level FlightAware Approximate
10:07AM 56.1422 -6.5956 102° East  Level FlightAware Approximate
10:15AM 55.8751 -4.4993 87° East  Level FlightAware Approximate
10:23AM 55.9180 -2.3594 88° East  Level FlightAware Approximate
10:31AM 55.9484 -0.2142 90° East  Level FlightAware Approximate
10:39AM 55.9349 1.9321 92° East  Level FlightAware Approximate
10:47AM 55.8813 4.0746 93° East  Level FlightAware Approximate
10:55AM 55.7919 6.2093 98° East  Level FlightAware Approximate
11:03AM 55.6043 8.3162 100° East  Level FlightAware Approximate
11:11AM 55.3810 10.4011 102° East  Level FlightAware Approximate
11:19AM 55.1226 12.4609 103° East  Level FlightAware Approximate
11:27AM 54.8299 14.4924 105° East  Level FlightAware Approximate
11:35AM 54.5015 16.4918 107° East  Level FlightAware Approximate
11:43AM 54.1407 18.4578 108° East  Level FlightAware Approximate
11:51AM 53.7483 20.3883 110° East  Level FlightAware Approximate
11:59AM 53.3256 22.2818 111° Southeast  Level FlightAware Approximate
12:07PM 52.8735 24.1369 113° Southeast  Level FlightAware Approximate
12:15PM 52.3931 25.9524 114° Southeast  Level FlightAware Approximate
12:23PM 51.8854 27.7278 116° Southeast  Level FlightAware Approximate
12:31PM 51.3517 29.4626 117° Southeast  Level FlightAware Approximate
12:39PM 50.7930 31.1565 118° Southeast  Level FlightAware Approximate
12:47PM 50.2103 32.8095 120° Southeast  Level FlightAware Approximate
12:55PM 49.6047 34.4218 121° Southeast  Level FlightAware Approximate
01:03PM 48.9773 35.9939 122° Southeast  Level FlightAware Approximate
01:11PM 48.3291 37.5263 123° Southeast  Level FlightAware Approximate
01:19PM 47.6610 39.0196 124° Southeast  Level FlightAware Approximate
01:27PM 46.9740 40.4747 125° Southeast  Level FlightAware Approximate
01:35PM 46.2691 41.8924 126° Southeast  Level FlightAware Approximate
01:43PM 45.5471 43.2737 127° Southeast  Level FlightAware Approximate
01:51PM 44.8089 44.6195 128° Southeast  Level FlightAware Approximate
01:59PM 44.0553 45.9310 129° Southeast  Level FlightAware Approximate
02:07PM 43.2871 47.2092 130° Southeast  Level FlightAware Approximate
02:15PM 42.5050 48.4552 131° Southeast  Level FlightAware Approximate
02:23PM 41.7097 49.6702 132° Southeast  Level FlightAware Approximate
02:31PM 40.9020 50.8553 133° Southeast  Level FlightAware Approximate
02:39PM 40.0824 52.0115 133° Southeast  Level FlightAware Approximate
02:47PM 39.2516 53.1401 134° Southeast  Level FlightAware Approximate
02:55PM 38.4101 54.2421 135° Southeast  Level FlightAware Approximate
03:03PM 37.5586 55.3185 135° Southeast  Level FlightAware Approximate
03:11PM 36.6975 56.3705 136° Southeast  Level FlightAware Approximate
03:19PM 35.8274 57.3991 137° Southeast  Level FlightAware Approximate
03:27PM 34.9487 58.4052 137° Southeast  Level FlightAware Approximate
03:35PM 34.0619 59.3899 135° Southeast  Level FlightAware Approximate
03:43PM 33.2156 60.4110 139° Southeast  Level FlightAware Approximate
03:51PM 32.3089 61.3496 139° Southeast  Level FlightAware Approximate
03:59PM 31.3955 62.2695 140° Southeast  Level FlightAware Approximate
04:07PM 30.4757 63.1716 140° Southeast  Level FlightAware Approximate
04:15PM 29.5497 64.0568 141° Southeast  Level FlightAware Approximate
04:23PM 28.6180 64.9258 141° Southeast  Level FlightAware Approximate
04:31PM 27.6808 65.7796 141° Southeast  Level FlightAware Approximate
04:39PM 26.7385 66.6187 142° Southeast  Level FlightAware Approximate
04:47PM 25.7913 67.4441 142° Southeast  Level FlightAware Approximate
04:55PM 24.8396 68.2563 143° Southeast  Level FlightAware Approximate
05:03PM 23.8810 69.0524 143° Southeast  Level FlightAware Approximate
05:11PM 22.9202 69.8395 143° Southeast  Level FlightAware Approximate
05:19PM 21.9556 70.6155 144° Southeast  Level FlightAware Approximate
05:27PM 20.9874 71.3809 144° Southeast  Level FlightAware Approximate
05:35PM 20.0188 72.1394 144° Southeast  Level FlightAware Approximate
05:43PM 19.0833 72.8667 12° North  Level FlightAware Approximate
05:51PM 20.2569 73.1429 193° South  Level Estimated
05:59PM 19.0833 72.8667 12° North  Level FlightAware Approximate
06:07PM 20.2569 73.1429 193° South  Level Estimated
06:15PM 19.0833 72.8667 193° South  Level FlightAware Approximate